Time,TemperatureF,DewpointF,PressureIn,WindDirection,WindDirectionDegrees,WindSpeedMPH,WindSpeedGustMPH,Humidity,HourlyPrecipIn,Conditions,Clouds,dailyrainin,SoftwareType,DateUTC
2013-02-19 00:00:00,3.2,-2.4,30.00,NW,321,12.0,23.0,77,0.00,,CLR,0.00,VWS V14.01,2013-02-19 06:00:00,
2013-02-19 00:02:00,4.8,-0.3,29.96,NW,325,10.0,24.0,79,0.00,,,0.00,VWS V14.01,2013-02-19 06:02:00,
2013-02-19 00:05:00,3.1,-2.5,30.01,NW,310,13.0,24.0,77,0.00,,CLR,0.00,VWS V14.01,2013-02-19 06:05:00,
2013-02-19 00:07:00,4.7,-0.4,29.97,NW,309,16.0,24.0,79,0.00,,,0.00,VWS V14.01,2013-02-19 06:07:00,
2013-02-19 00:10:00,3.1,-2.5,30.01,North,350,16.0,24.0,77,0.00,,CLR,0.00,VWS V14.01,2013-02-19 06:10:00,
2013-02-19 00:12:00,4.6,-0.5,29.98,NW,321,22.0,24.0,79,0.00,,,0.00,VWS V14.01,2013-02-19 06:12:00,
2013-02-19 00:15:00,2.9,-2.7,30.01,NNW,327,21.0,25.0,77,0.00,,CLR,0.00,VWS V14.01,2013-02-19 06:15:00,
2013-02-19 00:17:00,4.5,-0.6,29.98,NW,325,17.0,19.0,79,0.00,,,0.00,VWS V14.01,2013-02-19 06:17:00,
2013-02-19 00:20:00,2.9,-2.7,30.01,NNW,340,14.0,24.0,77,0.00,,CLR,0.00,VWS V14.01,2013-02-19 06:20:00,
2013-02-19 00:22:00,4.4,-0.7,29.98,NNW,333,15.0,24.0,79,0.00,,,0.00,VWS V14.01,2013-02-19 06:22:00,
2013-02-19 00:25:00,2.9,-2.7,30.02,NNW,334,11.0,19.0,77,0.00,,CLR,0.00,VWS V14.01,2013-02-19 06:25:00,
2013-02-19 00:27:00,4.3,-1.0,29.98,NW,312,18.0,25.0,78,0.00,,,0.00,VWS V14.01,2013-02-19 06:27:00,
2013-02-19 00:30:00,2.8,-2.8,30.02,NW,325,13.0,19.0,77,0.00,,CLR,0.00,VWS V14.01,2013-02-19 06:30:00,
2013-02-19 00:32:00,4.1,-1.2,29.98,NNW,337,14.0,20.0,78,0.00,,,0.00,VWS V14.01,2013-02-19 06:32:00,
2013-02-19 00:35:00,2.9,-2.7,30.02,WNW,302,13.0,21.0,77,0.00,,CLR,0.00,VWS V14.01,2013-02-19 06:35:00,
2013-02-19 00:37:00,4.0,-1.3,29.99,NW,310,11.0,22.0,78,0.00,,,0.00,VWS V14.01,2013-02-19 06:37:00,
2013-02-19 00:40:00,2.9,-2.7,30.02,NW,309,18.0,20.0,77,0.00,,CLR,0.00,VWS V14.01,2013-02-19 06:40:00,
2013-02-19 00:42:00,3.8,-1.5,29.99,NNW,341,13.0,23.0,78,0.00,,,0.00,VWS V14.01,2013-02-19 06:42:00,
2013-02-19 00:45:00,2.9,-2.9,30.02,NNW,327,15.0,22.0,76,0.00,,CLR,0.00,VWS V14.01,2013-02-19 06:45:00,
2013-02-19 00:47:00,3.7,-1.6,29.99,NNW,333,13.0,22.0,78,0.00,,,0.00,VWS V14.01,2013-02-19 06:47:00,
2013-02-19 00:50:00,2.9,-2.7,30.02,NNW,333,12.0,21.0,77,0.00,,CLR,0.00,VWS V14.01,2013-02-19 06:50:00,
2013-02-19 00:52:00,3.6,-1.7,30.00,NW,310,14.0,21.0,78,0.00,,,0.00,VWS V14.01,2013-02-19 06:52:00,
2013-02-19 00:55:00,2.9,-2.7,30.02,NW,309,16.0,23.0,77,0.00,,CLR,0.00,VWS V14.01,2013-02-19 06:55:00,
2013-02-19 00:57:00,3.4,-2.2,30.00,NW,319,16.0,22.0,77,0.00,,,0.00,VWS V14.01,2013-02-19 06:57:00,
2013-02-19 01:00:00,2.8,-3.0,30.03,NNW,327,14.0,21.0,76,0.00,,CLR,0.00,VWS V14.01,2013-02-19 07:00:00,
2013-02-19 01:02:00,3.2,-2.4,30.00,NNW,345,18.0,23.0,77,0.00,,,0.00,VWS V14.01,2013-02-19 07:02:00,
2013-02-19 01:05:00,2.8,-3.0,30.03,NW,315,12.0,21.0,76,0.00,,CLR,0.00,VWS V14.01,2013-02-19 07:05:00,
2013-02-19 01:07:00,3.1,-2.5,30.01,WNW,296,16.0,24.0,77,0.00,,,0.00,VWS V14.01,2013-02-19 07:07:00,
2013-02-19 01:10:00,2.8,-3.0,30.03,NW,322,13.0,21.0,76,0.00,,CLR,0.00,VWS V14.01,2013-02-19 07:10:00,
2013-02-19 01:12:00,3.1,-2.5,30.01,NW,323,13.0,24.0,77,0.00,,,0.00,VWS V14.01,2013-02-19 07:12:00,
2013-02-19 01:15:00,2.7,-2.9,30.04,NNW,329,12.0,18.0,77,0.00,,CLR,0.00,VWS V14.01,2013-02-19 07:15:00,
2013-02-19 01:17:00,2.9,-2.7,30.01,NNW,334,20.0,21.0,77,0.00,,,0.00,VWS V14.01,2013-02-19 07:17:00,
2013-02-19 01:20:00,2.7,-3.1,30.04,NW,310,20.0,20.0,76,0.00,,CLR,0.00,VWS V14.01,2013-02-19 07:20:00,
2013-02-19 01:23:00,2.9,-2.7,30.01,NW,323,16.0,24.0,77,0.00,,,0.00,VWS V14.01,2013-02-19 07:23:00,
2013-02-19 01:25:00,2.8,-2.8,30.04,NW,325,14.0,21.0,77,0.00,,CLR,0.00,VWS V14.01,2013-02-19 07:25:00,
2013-02-19 01:28:00,2.9,-2.7,30.01,NW,325,9.0,19.0,77,0.00,,,0.00,VWS V14.01,2013-02-19 07:28:00,
2013-02-19 01:30:00,2.8,-3.0,30.05,NW,312,18.0,26.0,76,0.00,,CLR,0.00,VWS V14.01,2013-02-19 07:30:00,
2013-02-19 01:33:00,2.8,-2.8,30.02,NW,313,14.0,19.0,77,0.00,,SCT120,0.00,VWS V14.01,2013-02-19 07:33:00,
2013-02-19 01:35:00,2.8,-3.0,30.05,NW,312,15.0,19.0,76,0.00,,CLR,0.00,VWS V14.01,2013-02-19 07:35:00,
2013-02-19 01:38:00,2.9,-2.7,30.02,WNW,302,13.0,21.0,77,0.00,,SCT120,0.00,VWS V14.01,2013-02-19 07:38:00,
2013-02-19 01:40:00,2.8,-3.0,30.05,NNW,338,14.0,28.0,76,0.00,,CLR,0.00,VWS V14.01,2013-02-19 07:40:00,
2013-02-19 01:43:00,2.9,-2.7,30.02,NW,314,13.0,20.0,77,0.00,,SCT120,0.00,VWS V14.01,2013-02-19 07:43:00,
2013-02-19 01:45:00,2.8,-3.0,30.05,NW,309,14.0,22.0,76,0.00,,CLR,0.00,VWS V14.01,2013-02-19 07:45:00,
2013-02-19 01:48:00,2.9,-2.9,30.02,NNW,327,15.0,22.0,76,0.00,,SCT120,0.00,VWS V14.01,2013-02-19 07:48:00,
2013-02-19 01:50:00,2.8,-3.0,30.05,NW,324,10.0,23.0,76,0.00,,CLR,0.00,VWS V14.01,2013-02-19 07:50:00,
2013-02-19 01:53:00,2.9,-2.7,30.02,NNW,333,12.0,21.0,77,0.00,,SCT120,0.00,VWS V14.01,2013-02-19 07:53:00,
2013-02-19 01:55:00,2.8,-3.0,30.06,NW,323,13.0,22.0,76,0.00,,CLR,0.00,VWS V14.01,2013-02-19 07:55:00,
2013-02-19 01:58:00,2.9,-2.7,30.02,NW,309,16.0,23.0,77,0.00,,SCT120,0.00,VWS V14.01,2013-02-19 07:58:00,
2013-02-19 02:00:00,2.8,-3.3,30.06,WNW,292,17.0,20.0,75,0.00,,CLR,0.00,VWS V14.01,2013-02-19 08:00:00,
2013-02-19 02:03:00,2.8,-3.0,30.03,NNW,327,14.0,21.0,76,0.00,,SCT120,0.00,VWS V14.01,2013-02-19 08:03:00,
2013-02-19 02:05:00,2.8,-3.0,30.06,NW,323,14.0,21.0,76,0.00,,CLR,0.00,VWS V14.01,2013-02-19 08:05:00,
2013-02-19 02:08:00,2.8,-3.0,30.03,NW,317,12.0,13.0,76,0.00,,SCT120,0.00,VWS V14.01,2013-02-19 08:08:00,
2013-02-19 02:10:00,2.8,-3.3,30.06,NW,313,16.0,23.0,75,0.00,,CLR,0.00,VWS V14.01,2013-02-19 08:10:00,
2013-02-19 02:13:00,2.8,-3.0,30.03,WNW,299,14.0,14.0,76,0.00,,SCT120,0.00,VWS V14.01,2013-02-19 08:13:00,
2013-02-19 02:15:00,2.7,-3.1,30.06,NNW,329,17.0,22.0,76,0.00,,CLR,0.00,VWS V14.01,2013-02-19 08:15:00,
2013-02-19 02:18:00,2.7,-2.9,30.04,NNW,338,11.0,12.0,77,0.00,,SCT120,0.00,VWS V14.01,2013-02-19 08:18:00,
2013-02-19 02:20:00,2.7,-3.4,30.06,NW,317,11.0,21.0,75,0.00,,CLR,0.00,VWS V14.01,2013-02-19 08:20:00,
2013-02-19 02:23:00,2.7,-3.1,30.04,WNW,298,15.0,21.0,76,0.00,,SCT120,0.00,VWS V14.01,2013-02-19 08:23:00,
2013-02-19 02:25:00,2.7,-3.4,30.07,NW,311,13.0,21.0,75,0.00,,CLR,0.00,VWS V14.01,2013-02-19 08:25:00,
2013-02-19 02:28:00,2.7,-2.9,30.04,NNW,327,24.0,24.0,77,0.00,,SCT120,0.00,VWS V14.01,2013-02-19 08:28:00,
2013-02-19 02:30:00,2.6,-3.5,30.07,NNW,329,11.0,21.0,75,0.00,,CLR,0.00,VWS V14.01,2013-02-19 08:30:00,
2013-02-19 02:33:00,2.8,-3.0,30.05,NW,313,13.0,18.0,76,0.00,,CLR,0.00,VWS V14.01,2013-02-19 08:33:00,
2013-02-19 02:35:00,2.6,-3.5,30.07,NNW,336,12.0,27.0,75,0.00,,CLR,0.00,VWS V14.01,2013-02-19 08:35:00,
2013-02-19 02:38:00,2.8,-3.0,30.05,NNW,328,14.0,18.0,76,0.00,,CLR,0.00,VWS V14.01,2013-02-19 08:38:00,
2013-02-19 02:40:00,2.6,-3.8,30.07,NW,307,12.0,27.0,74,0.00,,CLR,0.00,VWS V14.01,2013-02-19 08:40:00,
2013-02-19 02:43:00,2.8,-3.0,30.05,NW,321,15.0,16.0,76,0.00,,CLR,0.00,VWS V14.01,2013-02-19 08:43:00,
2013-02-19 02:45:00,2.5,-3.6,30.07,NNW,329,12.0,18.0,75,0.00,,CLR,0.00,VWS V14.01,2013-02-19 08:45:00,
2013-02-19 02:48:00,2.9,-2.9,30.05,NW,321,18.0,19.0,76,0.00,,CLR,0.00,VWS V14.01,2013-02-19 08:48:00,
2013-02-19 02:50:00,2.4,-3.7,30.07,NW,318,18.0,20.0,75,0.00,,CLR,0.00,VWS V14.01,2013-02-19 08:50:00,
2013-02-19 02:53:00,2.8,-3.0,30.05,NW,321,8.0,13.0,76,0.00,,BKN024,0.00,VWS V14.01,2013-02-19 08:53:00,
2013-02-19 02:55:00,2.4,-4.0,30.07,NNW,337,20.0,21.0,74,0.00,,CLR,0.00,VWS V14.01,2013-02-19 08:55:00,
2013-02-19 02:58:00,2.8,-3.0,30.05,NW,317,16.0,16.0,76,0.00,,CLR,0.00,VWS V14.01,2013-02-19 08:58:00,
2013-02-19 03:00:00,2.3,-4.1,30.08,NW,311,17.0,22.0,74,0.00,,CLR,0.00,VWS V14.01,2013-02-19 09:00:00,
2013-02-19 03:03:00,2.8,-3.3,30.06,NW,317,14.0,17.0,75,0.00,,BKN024,0.00,VWS V14.01,2013-02-19 09:03:00,
2013-02-19 03:05:00,2.2,-4.2,30.08,NNW,338,15.0,23.0,74,0.00,,CLR,0.00,VWS V14.01,2013-02-19 09:05:00,
2013-02-19 03:08:00,2.8,-3.0,30.06,NNW,329,13.0,18.0,76,0.00,,BKN024,0.00,VWS V14.01,2013-02-19 09:08:00,
2013-02-19 03:10:00,2.2,-4.2,30.08,NNW,329,18.0,19.0,74,0.00,,CLR,0.00,VWS V14.01,2013-02-19 09:10:00,
2013-02-19 03:13:00,2.8,-3.3,30.06,WNW,300,11.0,18.0,75,0.00,,BKN024,0.00,VWS V14.01,2013-02-19 09:13:00,
2013-02-19 03:15:00,2.1,-4.3,30.08,NNW,327,18.0,20.0,74,0.00,,CLR,0.00,VWS V14.01,2013-02-19 09:15:00,
2013-02-19 03:18:00,2.7,-3.4,30.06,North,355,13.0,17.0,75,0.00,,BKN024,0.00,VWS V14.01,2013-02-19 09:18:00,
2013-02-19 03:20:00,2.0,-4.4,30.09,NNW,329,12.0,19.0,74,0.00,,CLR,0.00,VWS V14.01,2013-02-19 09:20:00,
2013-02-19 03:23:00,2.7,-3.4,30.06,NW,323,17.0,20.0,75,0.00,,BKN024,0.00,VWS V14.01,2013-02-19 09:23:00,
2013-02-19 03:25:00,1.9,-4.5,30.09,NW,318,16.0,20.0,74,0.00,,CLR,0.00,VWS V14.01,2013-02-19 09:25:00,
2013-02-19 03:28:00,2.7,-3.4,30.07,NW,325,12.0,16.0,75,0.00,,BKN024,0.00,VWS V14.01,2013-02-19 09:28:00,
2013-02-19 03:30:00,1.8,-4.6,30.09,NW,310,10.0,21.0,74,0.00,,CLR,0.00,VWS V14.01,2013-02-19 09:30:00,
2013-02-19 03:33:00,2.6,-3.5,30.07,NNW,330,12.0,16.0,75,0.00,,OVC024,0.00,VWS V14.01,2013-02-19 09:33:00,
2013-02-19 03:35:00,1.7,-4.7,30.09,NNW,327,12.0,19.0,74,0.00,,CLR,0.00,VWS V14.01,2013-02-19 09:35:00,
2013-02-19 03:38:00,2.6,-3.5,30.07,NNW,327,17.0,19.0,75,0.00,,OVC024,0.00,VWS V14.01,2013-02-19 09:38:00,
2013-02-19 03:40:00,1.7,-4.7,30.09,NW,320,7.0,22.0,74,0.00,,CLR,0.00,VWS V14.01,2013-02-19 09:40:00,
2013-02-19 03:44:00,2.6,-3.5,30.07,NNW,334,14.0,17.0,75,0.00,,OVC024,0.00,VWS V14.01,2013-02-19 09:44:00,
2013-02-19 03:45:00,1.6,-4.8,30.09,WNW,300,14.0,19.0,74,0.00,,CLR,0.00,VWS V14.01,2013-02-19 09:45:00,
2013-02-19 03:49:00,2.5,-3.6,30.07,NNW,348,12.0,14.0,75,0.00,,OVC024,0.00,VWS V14.01,2013-02-19 09:49:00,
2013-02-19 03:50:00,1.5,-4.8,30.10,NW,318,12.0,21.0,74,0.00,,CLR,0.00,VWS V14.01,2013-02-19 09:50:00,
2013-02-19 03:54:00,2.4,-3.7,30.07,NNW,336,16.0,21.0,75,0.00,,OVC024,0.00,VWS V14.01,2013-02-19 09:54:00,
2013-02-19 03:55:00,1.5,-4.8,30.10,NW,321,10.0,22.0,74,0.00,,CLR,0.00,VWS V14.01,2013-02-19 09:55:00,
2013-02-19 03:59:00,2.4,-4.0,30.07,NW,323,20.0,22.0,74,0.00,,OVC024,0.00,VWS V14.01,2013-02-19 09:59:00,
2013-02-19 04:00:00,1.4,-4.9,30.10,NW,311,9.0,20.0,74,0.00,,CLR,0.00,VWS V14.01,2013-02-19 10:00:00,
2013-02-19 04:04:00,2.3,-4.1,30.08,NNW,333,17.0,21.0,74,0.00,,OVC024,0.00,VWS V14.01,2013-02-19 10:04:00,
2013-02-19 04:05:00,1.3,-5.0,30.11,NW,310,13.0,19.0,74,0.00,,CLR,0.00,VWS V14.01,2013-02-19 10:05:00,
2013-02-19 04:09:00,2.2,-4.2,30.08,NW,309,13.0,15.0,74,0.00,,OVC024,0.00,VWS V14.01,2013-02-19 10:09:00,
2013-02-19 04:10:00,1.2,-5.1,30.11,NW,309,18.0,18.0,74,0.00,,CLR,0.00,VWS V14.01,2013-02-19 10:10:00,
2013-02-19 04:14:00,2.2,-4.2,30.08,NNW,339,12.0,19.0,74,0.00,,OVC024,0.00,VWS V14.01,2013-02-19 10:14:00,
2013-02-19 04:15:00,1.1,-5.2,30.11,NW,309,11.0,19.0,74,0.00,,CLR,0.00,VWS V14.01,2013-02-19 10:15:00,
2013-02-19 04:19:00,2.0,-4.4,30.09,NW,325,13.0,19.0,74,0.00,,OVC024,0.00,VWS V14.01,2013-02-19 10:19:00,
2013-02-19 04:20:00,1.0,-5.3,30.11,NW,315,16.0,21.0,74,0.00,,CLR,0.00,VWS V14.01,2013-02-19 10:20:00,
2013-02-19 04:24:00,1.9,-4.5,30.09,NW,316,15.0,19.0,74,0.00,,OVC024,0.00,VWS V14.01,2013-02-19 10:24:00,
2013-02-19 04:25:00,1.0,-5.3,30.11,NNW,334,14.0,22.0,74,0.00,,CLR,0.00,VWS V14.01,2013-02-19 10:25:00,
2013-02-19 04:29:00,1.9,-4.5,30.09,NW,314,12.0,20.0,74,0.00,,OVC024,0.00,VWS V14.01,2013-02-19 10:29:00,
2013-02-19 04:30:00,0.9,-5.4,30.11,NW,317,16.0,20.0,74,0.00,,CLR,0.00,VWS V14.01,2013-02-19 10:30:00,
2013-02-19 04:34:00,1.8,-4.6,30.09,NNW,334,10.0,18.0,74,0.00,,OVC024,0.00,VWS V14.01,2013-02-19 10:34:00,
2013-02-19 04:35:00,0.9,-5.4,30.12,NNW,335,20.0,22.0,74,0.00,,CLR,0.00,VWS V14.01,2013-02-19 10:35:00,
2013-02-19 04:39:00,1.7,-4.7,30.09,North,350,15.0,18.0,74,0.00,,OVC024,0.00,VWS V14.01,2013-02-19 10:39:00,
2013-02-19 04:40:00,0.9,-5.4,30.12,NW,322,12.0,21.0,74,0.00,,CLR,0.00,VWS V14.01,2013-02-19 10:40:00,
2013-02-19 04:44:00,1.7,-4.7,30.09,NNW,330,15.0,15.0,74,0.00,,OVC024,0.00,VWS V14.01,2013-02-19 10:44:00,
2013-02-19 04:45:00,0.9,-5.4,30.12,NNW,338,18.0,19.0,74,0.00,,CLR,0.00,VWS V14.01,2013-02-19 10:45:00,
2013-02-19 04:50:00,1.5,-4.8,30.09,NW,319,16.0,17.0,74,0.00,,OVC024,0.00,VWS V14.01,2013-02-19 10:50:00,
2013-02-19 04:55:00,1.5,-4.8,30.10,NW,306,12.0,22.0,74,0.00,,OVC024,0.00,VWS V14.01,2013-02-19 10:55:00,
2013-02-19 05:00:00,1.4,-4.9,30.10,NNW,340,12.0,20.0,74,0.00,,OVC024,0.00,VWS V14.01,2013-02-19 11:00:00,
2013-02-19 05:05:00,1.3,-5.0,30.10,NW,322,7.0,18.0,74,0.00,,OVC024,0.00,VWS V14.01,2013-02-19 11:05:00,
2013-02-19 05:10:00,1.2,-5.1,30.11,NW,321,17.0,17.0,74,0.00,,OVC024,0.00,VWS V14.01,2013-02-19 11:10:00,
2013-02-19 05:15:00,1.1,-5.2,30.11,NNW,327,12.0,18.0,74,0.00,,OVC024,0.00,VWS V14.01,2013-02-19 11:15:00,
2013-02-19 05:20:00,1.0,-5.3,30.11,North,349,13.0,21.0,74,0.00,,OVC024,0.00,VWS V14.01,2013-02-19 11:20:00,
2013-02-19 05:25:00,1.0,-5.3,30.11,NW,311,16.0,22.0,74,0.00,,OVC024,0.00,VWS V14.01,2013-02-19 11:25:00,
2013-02-19 05:30:00,0.9,-5.4,30.11,NNW,334,11.0,20.0,74,0.00,,OVC024,0.00,VWS V14.01,2013-02-19 11:30:00,
2013-02-19 05:35:00,0.9,-5.4,30.11,NNW,344,16.0,20.0,74,0.00,,BKN024,0.00,VWS V14.01,2013-02-19 11:35:00,
2013-02-19 05:40:00,0.9,-5.4,30.12,NW,321,19.0,21.0,74,0.00,,BKN024,0.00,VWS V14.01,2013-02-19 11:40:00,
2013-02-19 05:45:00,0.9,-5.4,30.12,NNW,333,19.0,19.0,74,0.00,,BKN024,0.00,VWS V14.01,2013-02-19 11:45:00,
2013-02-19 05:50:00,0.9,-5.4,30.12,NNW,330,16.0,18.0,74,0.00,,BKN024,0.00,VWS V14.01,2013-02-19 11:50:00,
2013-02-19 05:55:00,0.3,-6.3,30.16,NNW,330,12.0,19.0,73,0.00,,CLR,0.00,VWS V14.01,2013-02-19 11:55:00,
2013-02-19 05:56:00,0.8,-5.5,30.12,NNW,340,15.0,17.0,74,0.00,,BKN024,0.00,VWS V14.01,2013-02-19 11:56:00,
2013-02-19 06:00:00,0.2,-6.4,30.17,NW,323,17.0,24.0,73,0.00,,CLR,0.00,VWS V14.01,2013-02-19 12:00:00,
2013-02-19 06:01:00,0.9,-5.4,30.13,NW,306,11.0,18.0,74,0.00,,BKN024,0.00,VWS V14.01,2013-02-19 12:01:00,
2013-02-19 06:05:00,0.2,-6.4,30.17,NNW,327,14.0,20.0,73,0.00,,CLR,0.00,VWS V14.01,2013-02-19 12:05:00,
2013-02-19 06:06:00,0.8,-5.5,30.13,NW,326,10.0,19.0,74,0.00,,BKN024,0.00,VWS V14.01,2013-02-19 12:06:00,
2013-02-19 06:10:00,0.1,-6.6,30.18,NW,306,16.0,17.0,73,0.00,,CLR,0.00,VWS V14.01,2013-02-19 12:10:00,
2013-02-19 06:11:00,0.8,-5.5,30.13,NW,322,13.0,21.0,74,0.00,,BKN024,0.00,VWS V14.01,2013-02-19 12:11:00,
2013-02-19 06:15:00,0.1,-6.6,30.18,NNW,340,13.0,19.0,73,0.00,,CLR,0.00,VWS V14.01,2013-02-19 12:15:00,
2013-02-19 06:16:00,0.7,-5.9,30.14,WNW,303,16.0,20.0,73,0.00,,BKN024,0.00,VWS V14.01,2013-02-19 12:16:00,
2013-02-19 06:20:00,-0.1,-6.7,30.19,NW,306,13.0,18.0,73,0.00,,CLR,0.00,VWS V14.01,2013-02-19 12:20:00,
2013-02-19 06:21:00,0.6,-6.0,30.14,NNW,329,14.0,20.0,73,0.00,,BKN024,0.00,VWS V14.01,2013-02-19 12:21:00,
2013-02-19 06:25:00,-0.2,-6.8,30.18,NNW,347,21.0,24.0,73,0.00,,CLR,0.00,VWS V14.01,2013-02-19 12:25:00,
2013-02-19 06:26:00,0.6,-6.0,30.14,NW,313,9.0,18.0,73,0.00,,BKN024,0.00,VWS V14.01,2013-02-19 12:26:00,
2013-02-19 06:30:00,-0.2,-6.8,30.19,NW,326,18.0,31.0,73,0.00,,CLR,0.00,VWS V14.01,2013-02-19 12:30:00,
2013-02-19 06:31:00,0.5,-5.8,30.15,NNW,340,12.0,20.0,74,0.00,,BKN024,0.00,VWS V14.01,2013-02-19 12:31:00,
2013-02-19 06:35:00,-0.3,-6.9,30.19,NNW,338,8.0,21.0,73,0.00,,CLR,0.00,VWS V14.01,2013-02-19 12:35:00,
2013-02-19 06:36:00,0.5,-5.8,30.15,NNW,330,18.0,23.0,74,0.00,,BKN024,0.00,VWS V14.01,2013-02-19 12:36:00,
2013-02-19 06:40:00,-0.3,-6.9,30.19,NW,313,14.0,19.0,73,0.00,,CLR,0.00,VWS V14.01,2013-02-19 12:40:00,
2013-02-19 06:41:00,0.5,-6.1,30.15,NNW,327,22.0,22.0,73,0.00,,BKN024,0.00,VWS V14.01,2013-02-19 12:41:00,
2013-02-19 06:45:00,-0.4,-7.0,30.20,NNW,331,11.0,19.0,73,0.00,,CLR,0.00,VWS V14.01,2013-02-19 12:45:00,
2013-02-19 06:46:00,0.5,-6.1,30.15,WNW,302,11.0,21.0,73,0.00,,BKN024,0.00,VWS V14.01,2013-02-19 12:46:00,
2013-02-19 06:50:00,-0.4,-7.0,30.20,NNW,337,11.0,19.0,73,0.00,,CLR,0.00,VWS V14.01,2013-02-19 12:50:00,
2013-02-19 06:51:00,0.4,-6.2,30.16,NNW,338,14.0,21.0,73,0.00,,BKN024,0.00,VWS V14.01,2013-02-19 12:51:00,
2013-02-19 06:55:00,-0.3,-7.2,30.21,NNW,332,11.0,21.0,72,0.00,,CLR,0.00,VWS V14.01,2013-02-19 12:55:00,
2013-02-19 06:57:00,0.3,-6.3,30.16,NW,325,13.0,19.0,73,0.00,,BKN024,0.00,VWS V14.01,2013-02-19 12:57:00,
2013-02-19 07:00:00,-0.4,-7.2,30.21,NNW,329,12.0,17.0,72,0.00,,CLR,0.00,VWS V14.01,2013-02-19 13:00:00,
2013-02-19 07:02:00,0.2,-6.4,30.17,NNW,329,9.0,24.0,73,0.00,,BKN024,0.00,VWS V14.01,2013-02-19 13:02:00,
2013-02-19 07:05:00,-0.3,-7.4,30.21,NNW,336,13.0,22.0,71,0.00,,CLR,0.00,VWS V14.01,2013-02-19 13:05:00,
2013-02-19 07:07:00,0.2,-6.4,30.17,NNW,331,12.0,18.0,73,0.00,,BKN024,0.00,VWS V14.01,2013-02-19 13:07:00,
2013-02-19 07:10:00,-0.1,-7.2,30.22,NNW,336,14.0,22.0,71,0.00,,CLR,0.00,VWS V14.01,2013-02-19 13:10:00,
2013-02-19 07:12:00,0.1,-6.6,30.18,NW,317,14.0,17.0,73,0.00,,BKN024,0.00,VWS V14.01,2013-02-19 13:12:00,
2013-02-19 07:15:00,-0.1,-7.2,30.22,NNW,330,11.0,17.0,71,0.00,,CLR,0.00,VWS V14.01,2013-02-19 13:15:00,
2013-02-19 07:17:00,0.1,-6.6,30.18,NNW,328,14.0,19.0,73,0.00,,BKN024,0.00,VWS V14.01,2013-02-19 13:17:00,
2013-02-19 07:20:00,-0.5,-7.9,30.23,WNW,296,8.0,17.0,70,0.00,,CLR,0.00,VWS V14.01,2013-02-19 13:20:00,
2013-02-19 07:22:00,-0.1,-6.7,30.19,NNW,334,12.0,18.0,73,0.00,,BKN024,0.00,VWS V14.01,2013-02-19 13:22:00,
2013-02-19 07:25:00,-1.4,-8.5,30.23,NW,318,4.0,15.0,71,0.00,,CLR,0.00,VWS V14.01,2013-02-19 13:25:00,
2013-02-19 07:27:00,-0.2,-6.8,30.18,NNW,339,18.0,24.0,73,0.00,,BKN024,0.00,VWS V14.01,2013-02-19 13:27:00,
2013-02-19 07:30:00,-2.0,-8.8,30.23,NW,319,7.0,14.0,72,0.00,,CLR,0.00,VWS V14.01,2013-02-19 13:30:00,
2013-02-19 07:32:00,-0.2,-6.8,30.19,North,355,17.0,31.0,73,0.00,,FEW024,0.00,VWS V14.01,2013-02-19 13:32:00,
2013-02-19 07:35:00,-2.4,-9.2,30.23,WNW,284,11.0,15.0,72,0.00,,CLR,0.00,VWS V14.01,2013-02-19 13:35:00,
2013-02-19 07:37:00,-0.3,-6.9,30.19,NW,323,15.0,21.0,73,0.00,,FEW024,0.00,VWS V14.01,2013-02-19 13:37:00,
2013-02-19 07:40:00,-2.6,-9.4,30.24,NW,311,12.0,14.0,72,0.00,,CLR,0.00,VWS V14.01,2013-02-19 13:40:00,
2013-02-19 07:42:00,-0.3,-6.9,30.19,NW,321,14.0,19.0,73,0.00,,FEW024,0.00,VWS V14.01,2013-02-19 13:42:00,
2013-02-19 07:45:00,-2.7,-9.5,30.24,NW,304,11.0,14.0,72,0.00,,CLR,0.00,VWS V14.01,2013-02-19 13:45:00,
2013-02-19 07:47:00,-0.4,-7.0,30.20,North,350,11.0,19.0,73,0.00,,FEW024,0.00,VWS V14.01,2013-02-19 13:47:00,
2013-02-19 07:50:00,-2.6,-9.4,30.24,NW,321,6.0,15.0,72,0.00,,CLR,0.00,VWS V14.01,2013-02-19 13:50:00,
2013-02-19 07:52:00,-0.4,-7.0,30.20,NNW,333,12.0,19.0,73,0.00,,FEW024,0.00,VWS V14.01,2013-02-19 13:52:00,
2013-02-19 07:55:00,-2.4,-9.2,30.24,WNW,294,7.0,14.0,72,0.00,,CLR,0.00,VWS V14.01,2013-02-19 13:55:00,
2013-02-19 07:57:00,-0.3,-7.2,30.21,NW,325,11.0,21.0,72,0.00,,FEW024,0.00,VWS V14.01,2013-02-19 13:57:00,
2013-02-19 08:00:00,-2.1,-8.9,30.24,NW,325,6.0,16.0,72,0.00,,CLR,0.00,VWS V14.01,2013-02-19 14:00:00,
2013-02-19 08:02:00,-0.3,-7.2,30.21,NNW,331,17.0,17.0,72,0.00,,FEW024,0.00,VWS V14.01,2013-02-19 14:02:00,
2013-02-19 08:05:00,-2.0,-9.1,30.25,NW,318,7.0,13.0,71,0.00,,CLR,0.00,VWS V14.01,2013-02-19 14:05:00,
2013-02-19 08:07:00,-0.3,-7.2,30.21,NW,316,15.0,22.0,72,0.00,,FEW024,0.00,VWS V14.01,2013-02-19 14:07:00,
2013-02-19 08:10:00,-2.0,-9.1,30.25,WNW,302,3.0,12.0,71,0.00,,CLR,0.00,VWS V14.01,2013-02-19 14:10:00,
2013-02-19 08:12:00,-0.1,-7.2,30.22,NNW,336,13.0,22.0,71,0.00,,FEW024,0.00,VWS V14.01,2013-02-19 14:12:00,
2013-02-19 08:15:00,-1.9,-9.0,30.25,NW,310,8.0,14.0,71,0.00,,CLR,0.00,VWS V14.01,2013-02-19 14:15:00,
2013-02-19 08:18:00,-0.1,-7.2,30.22,NNW,337,10.0,17.0,71,0.00,,FEW024,0.00,VWS V14.01,2013-02-19 14:18:00,
2013-02-19 08:20:00,-1.7,-8.8,30.25,NW,321,11.0,13.0,71,0.00,,CLR,0.00,VWS V14.01,2013-02-19 14:20:00,
2013-02-19 08:23:00,-0.5,-7.9,30.23,WNW,299,6.0,17.0,70,0.00,,FEW024,0.00,VWS V14.01,2013-02-19 14:23:00,
2013-02-19 08:25:00,-1.6,-9.0,30.25,WNW,303,10.0,14.0,70,0.00,,CLR,0.00,VWS V14.01,2013-02-19 14:25:00,
2013-02-19 08:28:00,-1.4,-8.5,30.23,NW,318,4.0,15.0,71,0.00,,FEW024,0.00,VWS V14.01,2013-02-19 14:28:00,
2013-02-19 08:30:00,-1.4,-8.8,30.25,NW,307,10.0,13.0,70,0.00,,CLR,0.00,VWS V14.01,2013-02-19 14:30:00,
2013-02-19 08:33:00,-2.0,-8.8,30.23,NW,319,7.0,14.0,72,0.00,,CLR,0.00,VWS V14.01,2013-02-19 14:33:00,
2013-02-19 08:35:00,-1.2,-8.6,30.25,NW,307,10.0,13.0,70,0.00,,CLR,0.00,VWS V14.01,2013-02-19 14:35:00,
2013-02-19 08:38:00,-2.4,-9.2,30.23,WNW,294,7.0,15.0,72,0.00,,CLR,0.00,VWS V14.01,2013-02-19 14:38:00,
2013-02-19 08:40:00,-1.1,-8.5,30.25,NW,311,9.0,16.0,70,0.00,,CLR,0.00,VWS V14.01,2013-02-19 14:40:00,
2013-02-19 08:43:00,-2.6,-9.4,30.24,NW,314,9.0,14.0,72,0.00,,CLR,0.00,VWS V14.01,2013-02-19 14:43:00,
2013-02-19 08:45:00,-0.8,-8.2,30.25,NNW,338,10.0,11.0,70,0.00,,CLR,0.00,VWS V14.01,2013-02-19 14:45:00,
2013-02-19 08:48:00,-2.7,-9.5,30.24,NW,304,11.0,14.0,72,0.00,,CLR,0.00,VWS V14.01,2013-02-19 14:48:00,
2013-02-19 08:50:00,-0.5,-8.2,30.25,WNW,294,4.0,15.0,69,0.00,,CLR,0.00,VWS V14.01,2013-02-19 14:50:00,
2013-02-19 08:53:00,-2.6,-9.4,30.24,NW,321,6.0,15.0,72,0.00,,CLR,0.00,VWS V14.01,2013-02-19 14:53:00,
2013-02-19 08:55:00,-0.2,-7.9,30.25,NW,309,9.0,14.0,69,0.00,,CLR,0.00,VWS V14.01,2013-02-19 14:55:00,
2013-02-19 08:58:00,-2.4,-9.2,30.24,WNW,299,10.0,10.0,72,0.00,,CLR,0.00,VWS V14.01,2013-02-19 14:58:00,
2013-02-19 09:00:00,-0.3,-8.3,30.26,NW,310,4.0,14.0,68,0.00,,CLR,0.00,VWS V14.01,2013-02-19 15:00:00,
2013-02-19 09:03:00,-2.1,-8.9,30.24,NNW,340,4.0,7.0,72,0.00,,CLR,0.00,VWS V14.01,2013-02-19 15:03:00,
2013-02-19 09:05:00,-0.3,-8.3,30.26,NW,318,5.0,16.0,68,0.00,,CLR,0.00,VWS V14.01,2013-02-19 15:05:00,
2013-02-19 09:08:00,-1.9,-9.0,30.25,WNW,303,5.0,11.0,71,0.00,,CLR,0.00,VWS V14.01,2013-02-19 15:08:00,
2013-02-19 09:10:00,-0.3,-8.3,30.26,NW,315,11.0,16.0,68,0.00,,CLR,0.00,VWS V14.01,2013-02-19 15:10:00,
2013-02-19 09:13:00,-2.0,-9.1,30.25,NW,308,7.0,14.0,71,0.00,,CLR,0.00,VWS V14.01,2013-02-19 15:13:00,
2013-02-19 09:15:00,-0.3,-8.3,30.26,NNW,334,8.0,18.0,68,0.00,,CLR,0.00,VWS V14.01,2013-02-19 15:15:00,
2013-02-19 09:18:00,-1.9,-9.0,30.25,NW,314,7.0,9.0,71,0.00,,CLR,0.00,VWS V14.01,2013-02-19 15:18:00,
2013-02-19 09:20:00,-0.4,-8.1,30.26,WNW,295,6.0,18.0,69,0.00,,CLR,0.00,VWS V14.01,2013-02-19 15:20:00,
2013-02-19 09:23:00,-1.7,-8.8,30.25,NW,320,8.0,12.0,71,0.00,,CLR,0.00,VWS V14.01,2013-02-19 15:23:00,
2013-02-19 09:25:00,-0.2,-7.9,30.26,NNW,329,8.0,15.0,69,0.00,,CLR,0.00,VWS V14.01,2013-02-19 15:25:00,
2013-02-19 09:28:00,-1.5,-8.9,30.25,NW,310,6.0,13.0,70,0.00,,CLR,0.00,VWS V14.01,2013-02-19 15:28:00,
2013-02-19 09:30:00,0.1,-7.6,30.26,NW,322,12.0,19.0,69,0.00,,CLR,0.00,VWS V14.01,2013-02-19 15:30:00,
2013-02-19 09:34:00,-1.4,-8.8,30.25,NW,325,4.0,10.0,70,0.00,,CLR,0.00,VWS V14.01,2013-02-19 15:34:00,
2013-02-19 09:35:00,0.1,-7.6,30.27,NW,321,16.0,22.0,69,0.00,,CLR,0.00,VWS V14.01,2013-02-19 15:35:00,
2013-02-19 09:39:00,-1.2,-8.6,30.25,NW,321,13.0,13.0,70,0.00,,CLR,0.00,VWS V14.01,2013-02-19 15:39:00,
2013-02-19 09:40:00,0.1,-8.0,30.27,NNW,331,10.0,19.0,68,0.00,,CLR,0.00,VWS V14.01,2013-02-19 15:40:00,
2013-02-19 09:44:00,-1.0,-8.4,30.25,NW,313,6.0,9.0,70,0.00,,CLR,0.00,VWS V14.01,2013-02-19 15:44:00,
2013-02-19 09:45:00,0.2,-7.8,30.27,NW,319,12.0,19.0,68,0.00,,CLR,0.00,VWS V14.01,2013-02-19 15:45:00,
2013-02-19 09:49:00,-0.7,-8.1,30.25,NNW,328,13.0,14.0,70,0.00,,CLR,0.00,VWS V14.01,2013-02-19 15:49:00,
2013-02-19 09:50:00,0.3,-7.8,30.28,NW,315,13.0,22.0,68,0.00,,CLR,0.00,VWS V14.01,2013-02-19 15:50:00,
2013-02-19 09:54:00,-0.4,-8.1,30.25,WNW,292,5.0,9.0,69,0.00,,CLR,0.00,VWS V14.01,2013-02-19 15:54:00,
2013-02-19 09:55:00,0.4,-7.7,30.28,NNW,336,16.0,21.0,68,0.00,,CLR,0.00,VWS V14.01,2013-02-19 15:55:00,
2013-02-19 09:59:00,-0.2,-7.9,30.26,WNW,296,8.0,12.0,69,0.00,,CLR,0.00,VWS V14.01,2013-02-19 15:59:00,
2013-02-19 10:00:00,0.4,-7.7,30.28,NW,322,12.0,19.0,68,0.00,,CLR,0.00,VWS V14.01,2013-02-19 16:00:00,
2013-02-19 10:04:00,-0.2,-7.9,30.26,NW,315,12.0,12.0,69,0.00,,CLR,0.00,VWS V14.01,2013-02-19 16:04:00,
2013-02-19 10:05:00,0.5,-7.6,30.29,NW,306,15.0,21.0,68,0.00,,CLR,0.00,VWS V14.01,2013-02-19 16:05:00,
2013-02-19 10:09:00,-0.3,-8.3,30.26,West,274,7.0,11.0,68,0.00,,CLR,0.00,VWS V14.01,2013-02-19 16:09:00,
2013-02-19 10:10:00,0.6,-7.5,30.29,NW,319,11.0,21.0,68,0.00,,CLR,0.00,VWS V14.01,2013-02-19 16:10:00,
2013-02-19 10:14:00,-0.2,-8.2,30.26,WNW,302,4.0,12.0,68,0.00,,CLR,0.00,VWS V14.01,2013-02-19 16:14:00,
2013-02-19 10:15:00,0.7,-7.7,30.29,NNW,330,14.0,24.0,67,0.00,,CLR,0.00,VWS V14.01,2013-02-19 16:15:00,
2013-02-19 10:19:00,-0.3,-8.3,30.26,WNW,294,12.0,18.0,68,0.00,,CLR,0.00,VWS V14.01,2013-02-19 16:19:00,
2013-02-19 10:20:00,0.8,-7.6,30.29,WNW,294,12.0,21.0,67,0.00,,CLR,0.00,VWS V14.01,2013-02-19 16:20:00,
2013-02-19 10:24:00,-0.3,-8.0,30.26,NNW,337,6.0,9.0,69,0.00,,CLR,0.00,VWS V14.01,2013-02-19 16:24:00,
2013-02-19 10:25:00,0.9,-7.5,30.30,NW,319,17.0,20.0,67,0.00,,CLR,0.00,VWS V14.01,2013-02-19 16:25:00,
2013-02-19 10:29:00,-0.1,-7.8,30.26,NW,304,8.0,12.0,69,0.00,,CLR,0.00,VWS V14.01,2013-02-19 16:29:00,
2013-02-19 10:30:00,0.9,-7.5,30.30,NW,312,15.0,20.0,67,0.00,,CLR,0.00,VWS V14.01,2013-02-19 16:30:00,
2013-02-19 10:35:00,0.1,-7.9,30.26,WNW,303,15.0,22.0,68,0.00,,CLR,0.00,VWS V14.01,2013-02-19 16:35:00,
2013-02-19 10:40:00,0.1,-8.0,30.27,NW,318,14.0,19.0,68,0.00,,CLR,0.00,VWS V14.01,2013-02-19 16:40:00,
2013-02-19 10:45:00,0.1,-7.6,30.27,NW,317,14.0,18.0,69,0.00,,CLR,0.00,VWS V14.01,2013-02-19 16:45:00,
2013-02-19 10:50:00,0.2,-7.8,30.27,NW,313,9.0,22.0,68,0.00,,CLR,0.00,VWS V14.01,2013-02-19 16:50:00,
2013-02-19 10:55:00,0.4,-7.7,30.28,WNW,300,14.0,18.0,68,0.00,,CLR,0.00,VWS V14.01,2013-02-19 16:55:00,
2013-02-19 11:00:00,0.3,-7.8,30.28,NW,316,13.0,19.0,68,0.00,,CLR,0.00,VWS V14.01,2013-02-19 17:00:00,
2013-02-19 11:05:00,0.5,-5.3,30.28,NW,310,18.0,19.0,76,0.00,,CLR,0.00,VWS V14.01,2013-02-19 17:05:00,
2013-02-19 11:10:00,0.5,-7.6,30.28,NNW,330,13.0,21.0,68,0.00,,CLR,0.00,VWS V14.01,2013-02-19 17:10:00,
2013-02-19 11:15:00,0.7,-7.7,30.29,NW,317,16.0,19.0,67,0.00,,CLR,0.00,VWS V14.01,2013-02-19 17:15:00,
2013-02-19 11:20:00,0.8,-7.6,30.29,WNW,291,18.0,18.0,67,0.00,,CLR,0.00,VWS V14.01,2013-02-19 17:20:00,
2013-02-19 11:25:00,1.0,-7.4,30.29,NW,313,9.0,20.0,67,0.00,,CLR,0.00,VWS V14.01,2013-02-19 17:25:00,
2013-02-19 11:30:00,0.8,-7.6,30.30,NW,309,9.0,20.0,67,0.00,,CLR,0.00,VWS V14.01,2013-02-19 17:30:00,
2013-02-19 11:35:00,2.4,-6.7,30.31,NW,311,12.0,13.0,65,0.00,,CLR,0.00,VWS V14.01,2013-02-19 17:35:00,
2013-02-19 11:36:00,0.9,-7.8,30.30,WNW,289,15.0,18.0,66,0.00,,CLR,0.00,VWS V14.01,2013-02-19 17:36:00,
2013-02-19 11:40:00,2.3,-6.8,30.31,WNW,291,10.0,16.0,65,0.00,,CLR,0.00,VWS V14.01,2013-02-19 17:40:00,
2013-02-19 11:41:00,0.9,-7.8,30.30,WNW,303,14.0,18.0,66,0.00,,CLR,0.00,VWS V14.01,2013-02-19 17:41:00,
2013-02-19 11:45:00,2.3,-6.8,30.31,NW,325,12.0,20.0,65,0.00,,CLR,0.00,VWS V14.01,2013-02-19 17:45:00,
2013-02-19 11:46:00,1.1,-7.3,30.30,NNW,342,18.0,20.0,67,0.00,,CLR,0.00,VWS V14.01,2013-02-19 17:46:00,
2013-02-19 11:50:00,2.5,-6.6,30.32,WSW,240,5.0,16.0,65,0.00,,CLR,0.00,VWS V14.01,2013-02-19 17:50:00,
2013-02-19 11:51:00,1.4,-7.0,30.30,NNW,335,6.0,15.0,67,0.00,,CLR,0.00,VWS V14.01,2013-02-19 17:51:00,
2013-02-19 11:55:00,2.7,-6.4,30.31,NNW,330,9.0,14.0,65,0.00,,CLR,0.00,VWS V14.01,2013-02-19 17:55:00,
2013-02-19 11:56:00,1.7,-7.0,30.30,NNW,330,10.0,16.0,66,0.00,,CLR,0.00,VWS V14.01,2013-02-19 17:56:00,
2013-02-19 12:00:00,3.0,-6.1,30.31,NW,317,13.0,18.0,65,0.00,,CLR,0.00,VWS V14.01,2013-02-19 18:00:00,
2013-02-19 12:01:00,1.6,-7.1,30.30,NW,320,12.0,24.0,66,0.00,,CLR,0.00,VWS V14.01,2013-02-19 18:01:00,
2013-02-19 12:05:00,2.8,-6.6,30.31,NNW,344,8.0,17.0,64,0.00,,CLR,0.00,VWS V14.01,2013-02-19 18:05:00,
2013-02-19 12:06:00,1.7,-7.3,30.31,NW,325,12.0,21.0,65,0.00,,CLR,0.00,VWS V14.01,2013-02-19 18:06:00,
2013-02-19 12:10:00,2.8,-6.6,30.31,North,350,8.0,17.0,64,0.00,,CLR,0.00,VWS V14.01,2013-02-19 18:10:00,
2013-02-19 12:11:00,1.6,-7.1,30.31,NNW,327,9.0,18.0,66,0.00,,CLR,0.00,VWS V14.01,2013-02-19 18:11:00,
2013-02-19 12:15:00,2.8,-6.3,30.31,NW,321,13.0,16.0,65,0.00,,CLR,0.00,VWS V14.01,2013-02-19 18:15:00,
2013-02-19 12:16:00,2.0,-6.7,30.31,WNW,296,6.0,17.0,66,0.00,,CLR,0.00,VWS V14.01,2013-02-19 18:16:00,
2013-02-19 12:20:00,2.9,-6.5,30.32,NW,309,10.0,16.0,64,0.00,,CLR,0.00,VWS V14.01,2013-02-19 18:20:00,
2013-02-19 12:21:00,2.0,-6.7,30.31,NW,319,12.0,16.0,66,0.00,,CLR,0.00,VWS V14.01,2013-02-19 18:21:00,
2013-02-19 12:25:00,3.1,-6.3,30.31,WNW,299,5.0,14.0,64,0.00,,CLR,0.00,VWS V14.01,2013-02-19 18:25:00,
2013-02-19 12:26:00,2.1,-6.6,30.31,NW,315,6.0,18.0,66,0.00,,CLR,0.00,VWS V14.01,2013-02-19 18:26:00,
2013-02-19 12:30:00,3.3,-6.4,30.32,West,270,11.0,16.0,63,0.00,,CLR,0.00,VWS V14.01,2013-02-19 18:30:00,
2013-02-19 12:31:00,2.2,-6.5,30.31,NW,308,9.0,17.0,66,0.00,,CLR,0.00,VWS V14.01,2013-02-19 18:31:00,
2013-02-19 12:35:00,3.5,-6.3,30.31,WNW,292,9.0,14.0,63,0.00,,CLR,0.00,VWS V14.01,2013-02-19 18:35:00,
2013-02-19 12:36:00,2.4,-6.7,30.31,NW,305,11.0,13.0,65,0.00,,CLR,0.00,VWS V14.01,2013-02-19 18:36:00,
2013-02-19 12:40:00,3.6,-6.2,30.31,NW,319,9.0,15.0,63,0.00,,CLR,0.00,VWS V14.01,2013-02-19 18:40:00,
2013-02-19 12:41:00,2.4,-7.0,30.31,NW,323,10.0,16.0,64,0.00,,CLR,0.00,VWS V14.01,2013-02-19 18:41:00,
2013-02-19 12:45:00,3.4,-6.3,30.31,NW,314,6.0,16.0,63,0.00,,CLR,0.00,VWS V14.01,2013-02-19 18:45:00,
2013-02-19 12:46:00,2.2,-7.2,30.31,NNW,341,3.0,20.0,64,0.00,,CLR,0.00,VWS V14.01,2013-02-19 18:46:00,
2013-02-19 12:50:00,3.8,-6.0,30.32,NW,311,10.0,15.0,63,0.00,,CLR,0.00,VWS V14.01,2013-02-19 18:50:00,
2013-02-19 12:51:00,2.4,-6.7,30.31,NW,310,6.0,16.0,65,0.00,,CLR,0.00,VWS V14.01,2013-02-19 18:51:00,
2013-02-19 12:55:00,4.0,-6.1,30.32,NW,309,8.0,18.0,62,0.00,,CLR,0.00,VWS V14.01,2013-02-19 18:55:00,
2013-02-19 12:57:00,2.7,-6.7,30.31,NW,319,5.0,13.0,64,0.00,,CLR,0.00,VWS V14.01,2013-02-19 18:57:00,
2013-02-19 13:00:00,4.1,-5.7,30.32,NW,310,12.0,16.0,63,0.00,,CLR,0.00,VWS V14.01,2013-02-19 19:00:00,
2013-02-19 13:02:00,3.0,-6.1,30.31,NW,318,9.0,13.0,65,0.00,,CLR,0.00,VWS V14.01,2013-02-19 19:02:00,
2013-02-19 13:05:00,4.2,-5.9,30.32,NW,323,14.0,18.0,62,0.00,,CLR,0.00,VWS V14.01,2013-02-19 19:05:00,
2013-02-19 13:07:00,2.8,-6.6,30.31,NW,325,11.0,17.0,64,0.00,,CLR,0.00,VWS V14.01,2013-02-19 19:07:00,
2013-02-19 13:10:00,4.5,-5.6,30.31,NW,323,12.0,20.0,62,0.00,,CLR,0.00,VWS V14.01,2013-02-19 19:10:00,
2013-02-19 13:12:00,2.8,-6.6,30.31,NW,321,15.0,15.0,64,0.00,,CLR,0.00,VWS V14.01,2013-02-19 19:12:00,
2013-02-19 13:15:00,4.7,-5.8,30.32,NW,317,11.0,19.0,61,0.00,,CLR,0.00,VWS V14.01,2013-02-19 19:15:00,
2013-02-19 13:17:00,2.8,-6.6,30.31,NW,319,4.0,16.0,64,0.00,,CLR,0.00,VWS V14.01,2013-02-19 19:17:00,
2013-02-19 13:20:00,4.9,-5.6,30.32,WNW,287,10.0,16.0,61,0.00,,CLR,0.00,VWS V14.01,2013-02-19 19:20:00,
2013-02-19 13:22:00,2.9,-6.8,30.32,West,281,5.0,16.0,63,0.00,,CLR,0.00,VWS V14.01,2013-02-19 19:22:00,
2013-02-19 13:25:00,4.6,-5.9,30.32,NW,317,16.0,20.0,61,0.00,,CLR,0.00,VWS V14.01,2013-02-19 19:25:00,
2013-02-19 13:27:00,3.1,-6.3,30.31,NW,312,8.0,14.0,64,0.00,,CLR,0.00,VWS V14.01,2013-02-19 19:27:00,
2013-02-19 13:30:00,4.7,-5.8,30.32,NW,315,14.0,18.0,61,0.00,,CLR,0.00,VWS V14.01,2013-02-19 19:30:00,
2013-02-19 13:32:00,3.3,-6.4,30.32,NNW,340,15.0,16.0,63,0.00,,CLR,0.00,VWS V14.01,2013-02-19 19:32:00,
2013-02-19 13:35:00,4.9,-5.6,30.33,NW,310,10.0,20.0,61,0.00,,CLR,0.00,VWS V14.01,2013-02-19 19:35:00,
2013-02-19 13:37:00,3.5,-6.3,30.31,NW,314,12.0,14.0,63,0.00,,CLR,0.00,VWS V14.01,2013-02-19 19:37:00,
2013-02-19 13:40:00,4.9,-5.6,30.33,WNW,302,12.0,14.0,61,0.00,,CLR,0.00,VWS V14.01,2013-02-19 19:40:00,
2013-02-19 13:43:00,3.6,-6.2,30.31,WNW,302,12.0,15.0,63,0.00,,CLR,0.00,VWS V14.01,2013-02-19 19:43:00,
2013-02-19 13:45:00,4.9,-5.6,30.33,WNW,301,10.0,19.0,61,0.00,,CLR,0.00,VWS V14.01,2013-02-19 19:45:00,
2013-02-19 13:48:00,3.4,-6.3,30.31,NW,319,11.0,16.0,63,0.00,,CLR,0.00,VWS V14.01,2013-02-19 19:48:00,
2013-02-19 13:50:00,4.8,-6.0,30.33,WNW,302,16.0,18.0,60,0.00,,CLR,0.00,VWS V14.01,2013-02-19 19:50:00,
2013-02-19 13:53:00,3.8,-6.0,30.32,NNW,331,7.0,15.0,63,0.00,,CLR,0.00,VWS V14.01,2013-02-19 19:53:00,
2013-02-19 13:55:00,4.7,-5.8,30.33,NW,310,12.0,18.0,61,0.00,,CLR,0.00,VWS V14.01,2013-02-19 19:55:00,
2013-02-19 13:58:00,4.0,-6.1,30.32,NW,306,7.0,18.0,62,0.00,,CLR,0.00,VWS V14.01,2013-02-19 19:58:00,
2013-02-19 14:00:00,4.8,-6.0,30.34,NW,317,13.0,18.0,60,0.00,,CLR,0.00,VWS V14.01,2013-02-19 20:00:00,
2013-02-19 14:03:00,4.1,-5.7,30.32,NW,321,7.0,16.0,63,0.00,,CLR,0.00,VWS V14.01,2013-02-19 20:03:00,
2013-02-19 14:05:00,4.9,-5.9,30.34,NW,318,14.0,19.0,60,0.00,,CLR,0.00,VWS V14.01,2013-02-19 20:05:00,
2013-02-19 14:08:00,4.2,-5.9,30.32,NW,323,14.0,18.0,62,0.00,,CLR,0.00,VWS V14.01,2013-02-19 20:08:00,
2013-02-19 14:10:00,5.1,-5.7,30.35,NW,323,15.0,18.0,60,0.00,,CLR,0.00,VWS V14.01,2013-02-19 20:10:00,
2013-02-19 14:13:00,4.5,-5.6,30.31,NW,323,12.0,20.0,62,0.00,,CLR,0.00,VWS V14.01,2013-02-19 20:13:00,
2013-02-19 14:15:00,5.0,-5.8,30.35,WNW,301,12.0,20.0,60,0.00,,CLR,0.00,VWS V14.01,2013-02-19 20:15:00,
2013-02-19 14:18:00,4.7,-5.8,30.32,NW,317,11.0,19.0,61,0.00,,CLR,0.00,VWS V14.01,2013-02-19 20:18:00,
2013-02-19 14:20:00,5.0,-5.8,30.35,NW,311,17.0,17.0,60,0.00,,CLR,0.00,VWS V14.01,2013-02-19 20:20:00,
2013-02-19 14:23:00,4.9,-5.6,30.32,NW,312,12.0,12.0,61,0.00,,CLR,0.00,VWS V14.01,2013-02-19 20:23:00,
2013-02-19 14:25:00,5.0,-5.8,30.36,WNW,303,13.0,17.0,60,0.00,,CLR,0.00,VWS V14.01,2013-02-19 20:25:00,
2013-02-19 14:28:00,4.6,-5.9,30.32,NW,317,14.0,16.0,61,0.00,,CLR,0.00,VWS V14.01,2013-02-19 20:28:00,
2013-02-19 14:30:00,5.1,-5.7,30.36,WNW,300,9.0,14.0,60,0.00,,CLR,0.00,VWS V14.01,2013-02-19 20:30:00,
2013-02-19 14:33:00,4.7,-5.8,30.32,NNW,333,13.0,15.0,61,0.00,,CLR,0.00,VWS V14.01,2013-02-19 20:33:00,
2013-02-19 14:35:00,5.3,-5.9,30.36,NW,307,10.0,17.0,59,0.00,,CLR,0.00,VWS V14.01,2013-02-19 20:35:00,
2013-02-19 14:38:00,4.9,-5.9,30.33,NW,322,9.0,10.0,60,0.00,,CLR,0.00,VWS V14.01,2013-02-19 20:38:00,
2013-02-19 14:40:00,5.4,-5.8,30.36,WNW,296,12.0,16.0,59,0.00,,CLR,0.00,VWS V14.01,2013-02-19 20:40:00,
2013-02-19 14:43:00,4.9,-5.6,30.33,NW,317,12.0,12.0,61,0.00,,CLR,0.00,VWS V14.01,2013-02-19 20:43:00,
2013-02-19 14:45:00,5.5,-5.4,30.36,NW,316,18.0,18.0,60,0.00,,CLR,0.00,VWS V14.01,2013-02-19 20:45:00,
2013-02-19 14:48:00,4.9,-5.6,30.33,WNW,301,17.0,17.0,61,0.00,,CLR,0.00,VWS V14.01,2013-02-19 20:48:00,
2013-02-19 14:50:00,5.5,-5.7,30.37,NW,319,10.0,18.0,59,0.00,,CLR,0.00,VWS V14.01,2013-02-19 20:50:00,
2013-02-19 14:53:00,4.8,-6.0,30.33,WNW,297,11.0,16.0,60,0.00,,CLR,0.00,VWS V14.01,2013-02-19 20:53:00,
2013-02-19 14:55:00,5.7,-5.5,30.37,NW,313,6.0,11.0,59,0.00,,CLR,0.00,VWS V14.01,2013-02-19 20:55:00,
2013-02-19 14:58:00,4.7,-5.8,30.34,NW,323,14.0,17.0,61,0.00,,CLR,0.00,VWS V14.01,2013-02-19 20:58:00,
2013-02-19 15:00:00,5.7,-5.5,30.37,NW,306,9.0,11.0,59,0.00,,CLR,0.00,VWS V14.01,2013-02-19 21:00:00,
2013-02-19 15:03:00,4.8,-6.0,30.34,NW,315,8.0,14.0,60,0.00,,CLR,0.00,VWS V14.01,2013-02-19 21:03:00,
2013-02-19 15:05:00,5.6,-5.6,30.37,NW,313,7.0,12.0,59,0.00,,CLR,0.00,VWS V14.01,2013-02-19 21:05:00,
2013-02-19 15:08:00,4.9,-5.6,30.34,NW,310,14.0,18.0,61,0.00,,CLR,0.00,VWS V14.01,2013-02-19 21:08:00,
2013-02-19 15:10:00,5.6,-5.6,30.37,NW,304,10.0,17.0,59,0.00,,CLR,0.00,VWS V14.01,2013-02-19 21:10:00,
2013-02-19 15:13:00,5.0,-6.2,30.35,NW,308,13.0,19.0,59,0.00,,CLR,0.00,VWS V14.01,2013-02-19 21:13:00,
2013-02-19 15:15:00,5.8,-5.4,30.37,NW,315,13.0,17.0,59,0.00,,CLR,0.00,VWS V14.01,2013-02-19 21:15:00,
2013-02-19 15:18:00,4.9,-6.3,30.35,NNW,330,10.0,15.0,59,0.00,,CLR,0.00,VWS V14.01,2013-02-19 21:18:00,
2013-02-19 15:20:00,5.9,-5.3,30.37,NW,321,7.0,14.0,59,0.00,,CLR,0.00,VWS V14.01,2013-02-19 21:20:00,
2013-02-19 15:23:00,5.0,-6.2,30.35,NW,306,13.0,17.0,59,0.00,,CLR,0.00,VWS V14.01,2013-02-19 21:23:00,
2013-02-19 15:25:00,5.9,-5.3,30.38,NW,319,7.0,15.0,59,0.00,,CLR,0.00,VWS V14.01,2013-02-19 21:25:00,
2013-02-19 15:29:00,5.0,-5.8,30.36,NNW,329,10.0,13.0,60,0.00,,CLR,0.00,VWS V14.01,2013-02-19 21:29:00,
2013-02-19 15:30:00,6.0,-5.6,30.38,NW,307,11.0,14.0,58,0.00,,CLR,0.00,VWS V14.01,2013-02-19 21:30:00,
2013-02-19 15:34:00,5.2,-5.7,30.36,NNW,341,10.0,10.0,60,0.00,,CLR,0.00,VWS V14.01,2013-02-19 21:34:00,
2013-02-19 15:35:00,5.9,-5.3,30.38,NW,313,12.0,16.0,59,0.00,,CLR,0.00,VWS V14.01,2013-02-19 21:35:00,
2013-02-19 15:39:00,5.4,-5.8,30.36,NW,325,13.0,14.0,59,0.00,,CLR,0.00,VWS V14.01,2013-02-19 21:39:00,
2013-02-19 15:40:00,5.8,-5.4,30.39,NNW,337,9.0,13.0,59,0.00,,CLR,0.00,VWS V14.01,2013-02-19 21:40:00,
2013-02-19 15:44:00,5.4,-5.5,30.36,NNW,344,8.0,14.0,60,0.00,,CLR,0.00,VWS V14.01,2013-02-19 21:44:00,
2013-02-19 15:45:00,5.6,-5.6,30.39,NW,323,7.0,12.0,59,0.00,,CLR,0.00,VWS V14.01,2013-02-19 21:45:00,
2013-02-19 15:49:00,5.5,-5.7,30.37,NNW,332,14.0,18.0,59,0.00,,CLR,0.00,VWS V14.01,2013-02-19 21:49:00,
2013-02-19 15:50:00,5.5,-5.7,30.39,NW,310,5.0,15.0,59,0.00,,CLR,0.00,VWS V14.01,2013-02-19 21:50:00,
2013-02-19 15:54:00,5.6,-5.3,30.37,WNW,298,3.0,10.0,60,0.00,,CLR,0.00,VWS V14.01,2013-02-19 21:54:00,
2013-02-19 15:55:00,5.3,-5.9,30.39,NW,311,12.0,17.0,59,0.00,,CLR,0.00,VWS V14.01,2013-02-19 21:55:00,
2013-02-19 15:59:00,5.7,-5.5,30.37,NW,306,8.0,10.0,59,0.00,,CLR,0.00,VWS V14.01,2013-02-19 21:59:00,
2013-02-19 16:00:00,5.3,-5.9,30.39,NNW,328,9.0,16.0,59,0.00,,CLR,0.00,VWS V14.01,2013-02-19 22:00:00,
2013-02-19 16:04:00,5.6,-5.6,30.37,NW,304,4.0,9.0,59,0.00,,CLR,0.00,VWS V14.01,2013-02-19 22:04:00,
2013-02-19 16:05:00,5.3,-5.6,30.39,NNW,327,11.0,14.0,60,0.00,,CLR,0.00,VWS V14.01,2013-02-19 22:05:00,
2013-02-19 16:09:00,5.6,-5.3,30.37,WNW,295,10.0,15.0,60,0.00,,CLR,0.00,VWS V14.01,2013-02-19 22:09:00,
2013-02-19 16:10:00,5.1,-5.7,30.39,WNW,302,6.0,13.0,60,0.00,,CLR,0.00,VWS V14.01,2013-02-19 22:10:00,
2013-02-19 16:14:00,5.6,-5.6,30.37,NNW,331,13.0,17.0,59,0.00,,CLR,0.00,VWS V14.01,2013-02-19 22:14:00,
2013-02-19 16:15:00,5.0,-5.8,30.39,NNW,327,6.0,14.0,60,0.00,,CLR,0.00,VWS V14.01,2013-02-19 22:15:00,
2013-02-19 16:19:00,5.8,-5.4,30.37,NW,315,6.0,13.0,59,0.00,,CLR,0.00,VWS V14.01,2013-02-19 22:19:00,
2013-02-19 16:20:00,4.8,-6.0,30.39,NW,313,7.0,12.0,60,0.00,,CLR,0.00,VWS V14.01,2013-02-19 22:20:00,
2013-02-19 16:24:00,5.9,-5.3,30.38,NW,318,11.0,15.0,59,0.00,,CLR,0.00,VWS V14.01,2013-02-19 22:24:00,
2013-02-19 16:25:00,4.7,-5.8,30.40,NW,325,5.0,10.0,61,0.00,,CLR,0.00,VWS V14.01,2013-02-19 22:25:00,
2013-02-19 16:29:00,5.9,-5.3,30.38,WNW,303,7.0,11.0,59,0.00,,CLR,0.00,VWS V14.01,2013-02-19 22:29:00,
2013-02-19 16:30:00,4.5,-6.0,30.40,NNW,336,8.0,11.0,61,0.00,,CLR,0.00,VWS V14.01,2013-02-19 22:30:00,
2013-02-19 16:35:00,5.9,-5.3,30.38,NW,322,6.0,12.0,59,0.00,,CLR,0.00,VWS V14.01,2013-02-19 22:35:00,
2013-02-19 16:40:00,5.8,-5.4,30.38,NW,323,7.0,13.0,59,0.00,,CLR,0.00,VWS V14.01,2013-02-19 22:40:00,
2013-02-19 16:45:00,5.7,-5.5,30.39,NW,307,10.0,12.0,59,0.00,,CLR,0.00,VWS V14.01,2013-02-19 22:45:00,
2013-02-19 16:50:00,5.5,-5.7,30.39,NNW,329,6.0,10.0,59,0.00,,CLR,0.00,VWS V14.01,2013-02-19 22:50:00,
2013-02-19 16:55:00,5.4,-5.8,30.39,NW,310,11.0,13.0,59,0.00,,CLR,0.00,VWS V14.01,2013-02-19 22:55:00,
2013-02-19 17:00:00,5.3,-5.9,30.39,NNW,341,5.0,12.0,59,0.00,,CLR,0.00,VWS V14.01,2013-02-19 23:00:00,
2013-02-19 17:05:00,5.3,-5.6,30.39,NW,319,7.0,13.0,60,0.00,,CLR,0.00,VWS V14.01,2013-02-19 23:05:00,
2013-02-19 17:10:00,5.2,-5.7,30.39,NNW,329,9.0,13.0,60,0.00,,CLR,0.00,VWS V14.01,2013-02-19 23:10:00,
2013-02-19 17:15:00,5.0,-3.5,30.39,NW,317,7.0,14.0,67,0.00,,CLR,0.00,VWS V14.01,2013-02-19 23:15:00,
2013-02-19 17:20:00,4.9,-5.9,30.39,NW,325,10.0,10.0,60,0.00,,CLR,0.00,VWS V14.01,2013-02-19 23:20:00,
2013-02-19 17:25:00,4.8,-6.0,30.39,NW,315,6.0,10.0,60,0.00,,CLR,0.00,VWS V14.01,2013-02-19 23:25:00,
2013-02-19 17:30:00,3.2,-6.9,30.43,NNW,327,9.0,12.0,62,0.00,,CLR,0.00,VWS V14.01,2013-02-19 23:30:00,
2013-02-19 17:31:00,4.6,-5.9,30.40,NNW,341,7.0,11.0,61,0.00,,CLR,0.00,VWS V14.01,2013-02-19 23:31:00,
2013-02-19 17:35:00,3.0,-7.1,30.43,NW,316,6.0,11.0,62,0.00,,CLR,0.00,VWS V14.01,2013-02-19 23:35:00,
2013-02-19 17:36:00,4.5,-6.0,30.40,NW,322,11.0,12.0,61,0.00,,CLR,0.00,VWS V14.01,2013-02-19 23:36:00,
2013-02-19 17:40:00,2.8,-6.9,30.43,NW,319,11.0,11.0,63,0.00,,CLR,0.00,VWS V14.01,2013-02-19 23:40:00,
2013-02-19 17:41:00,4.6,-5.9,30.40,NW,314,9.0,13.0,61,0.00,,CLR,0.00,VWS V14.01,2013-02-19 23:41:00,
2013-02-19 17:45:00,2.8,-6.9,30.43,NNW,331,7.0,12.0,63,0.00,,CLR,0.00,VWS V14.01,2013-02-19 23:45:00,
2013-02-19 17:46:00,4.6,-5.9,30.41,NW,317,9.0,11.0,61,0.00,,CLR,0.00,VWS V14.01,2013-02-19 23:46:00,
2013-02-19 17:50:00,2.6,-7.1,30.44,NW,311,9.0,11.0,63,0.00,,CLR,0.00,VWS V14.01,2013-02-19 23:50:00,
2013-02-19 17:51:00,4.5,-6.0,30.41,NW,322,12.0,13.0,61,0.00,,CLR,0.00,VWS V14.01,2013-02-19 23:51:00,
2013-02-19 17:55:00,2.6,-7.1,30.44,NNW,330,9.0,12.0,63,0.00,,CLR,0.00,VWS V14.01,2013-02-19 23:55:00,
2013-02-19 17:56:00,4.4,-6.1,30.41,NW,313,7.0,12.0,61,0.00,,CLR,0.00,VWS V14.01,2013-02-19 23:56:00,
2013-02-19 18:00:00,2.6,-7.1,30.44,NNW,334,11.0,11.0,63,0.00,,CLR,0.00,VWS V14.01,2013-02-20 00:00:00,
2013-02-19 18:01:00,4.1,-6.3,30.42,NW,313,9.0,11.0,61,0.00,,CLR,0.00,VWS V14.01,2013-02-20 00:01:00,
2013-02-19 18:05:00,2.5,-7.2,30.44,NW,304,7.0,11.0,63,0.00,,CLR,0.00,VWS V14.01,2013-02-20 00:05:00,
2013-02-19 18:06:00,3.8,-6.6,30.42,NNW,338,7.0,12.0,61,0.00,,CLR,0.00,VWS V14.01,2013-02-20 00:06:00,
2013-02-19 18:10:00,2.4,-7.3,30.45,NW,317,4.0,11.0,63,0.00,,CLR,0.00,VWS V14.01,2013-02-20 00:10:00,
2013-02-19 18:11:00,3.6,-6.8,30.42,NNW,328,4.0,13.0,61,0.00,,CLR,0.00,VWS V14.01,2013-02-20 00:11:00,
2013-02-19 18:15:00,2.2,-7.5,30.45,NW,309,7.0,11.0,63,0.00,,CLR,0.00,VWS V14.01,2013-02-20 00:15:00,
2013-02-19 18:16:00,3.5,-6.6,30.42,NW,325,5.0,13.0,62,0.00,,CLR,0.00,VWS V14.01,2013-02-20 00:16:00,
2013-02-19 18:20:00,2.1,-7.6,30.45,NW,313,7.0,12.0,63,0.00,,CLR,0.00,VWS V14.01,2013-02-20 00:20:00,
2013-02-19 18:21:00,3.4,-6.7,30.42,NNW,339,7.0,12.0,62,0.00,,CLR,0.00,VWS V14.01,2013-02-20 00:21:00,
2013-02-19 18:25:00,2.2,-7.5,30.46,NW,322,7.0,12.0,63,0.00,,CLR,0.00,VWS V14.01,2013-02-20 00:25:00,
2013-02-19 18:26:00,3.3,-6.8,30.42,NNW,338,8.0,12.0,62,0.00,,CLR,0.00,VWS V14.01,2013-02-20 00:26:00,
2013-02-19 18:30:00,2.1,-7.6,30.46,NW,309,9.0,14.0,63,0.00,,CLR,0.00,VWS V14.01,2013-02-20 00:30:00,
2013-02-19 18:31:00,3.2,-6.9,30.43,NW,310,9.0,12.0,62,0.00,,CLR,0.00,VWS V14.01,2013-02-20 00:31:00,
2013-02-19 18:35:00,2.0,-7.7,30.46,NW,323,9.0,13.0,63,0.00,,CLR,0.00,VWS V14.01,2013-02-20 00:35:00,
2013-02-19 18:36:00,3.1,-7.0,30.43,NW,326,6.0,11.0,62,0.00,,CLR,0.00,VWS V14.01,2013-02-20 00:36:00,
2013-02-19 18:40:00,1.9,-7.8,30.46,WNW,298,10.0,11.0,63,0.00,,CLR,0.00,VWS V14.01,2013-02-20 00:40:00,
2013-02-19 18:41:00,2.8,-7.2,30.43,NW,321,9.0,10.0,62,0.00,,CLR,0.00,VWS V14.01,2013-02-20 00:41:00,
2013-02-19 18:45:00,1.7,-8.0,30.46,NNW,329,9.0,12.0,63,0.00,,CLR,0.00,VWS V14.01,2013-02-20 00:45:00,
2013-02-19 18:46:00,2.8,-6.9,30.43,North,355,12.0,12.0,63,0.00,,CLR,0.00,VWS V14.01,2013-02-20 00:46:00,
2013-02-19 18:51:00,2.7,-7.0,30.43,NNW,345,9.0,11.0,63,0.00,,CLR,0.00,VWS V14.01,2013-02-20 00:51:00,
2013-02-19 18:55:00,1.5,-7.8,30.47,NW,311,9.0,12.0,64,0.00,,CLR,0.00,VWS V14.01,2013-02-20 00:55:00,
2013-02-19 18:56:00,2.6,-7.1,30.44,NNW,342,9.0,12.0,63,0.00,,CLR,0.00,VWS V14.01,2013-02-20 00:56:00,
2013-02-19 19:00:00,1.5,-7.8,30.47,NNW,332,9.0,14.0,64,0.00,,CLR,0.00,VWS V14.01,2013-02-20 01:00:00,
2013-02-19 19:02:00,2.7,-7.0,30.44,NW,325,7.0,11.0,63,0.00,,CLR,0.00,VWS V14.01,2013-02-20 01:02:00,
2013-02-19 19:05:00,1.4,-7.9,30.47,NW,322,11.0,14.0,64,0.00,,CLR,0.00,VWS V14.01,2013-02-20 01:05:00,
2013-02-19 19:07:00,2.5,-7.2,30.44,NNW,329,8.0,11.0,63,0.00,,CLR,0.00,VWS V14.01,2013-02-20 01:07:00,
2013-02-19 19:10:00,1.5,-7.8,30.48,NW,317,5.0,15.0,64,0.00,,CLR,0.00,VWS V14.01,2013-02-20 01:10:00,
2013-02-19 19:12:00,2.4,-7.3,30.44,NW,314,10.0,11.0,63,0.00,,CLR,0.00,VWS V14.01,2013-02-20 01:12:00,
2013-02-19 19:15:00,1.3,-8.0,30.47,NNW,331,12.0,14.0,64,0.00,,CLR,0.00,VWS V14.01,2013-02-20 01:15:00,
2013-02-19 19:17:00,2.2,-7.5,30.45,NW,315,11.0,11.0,63,0.00,,CLR,0.00,VWS V14.01,2013-02-20 01:17:00,
2013-02-19 19:20:00,1.2,-7.8,30.47,NW,314,11.0,14.0,65,0.00,,CLR,0.00,VWS V14.01,2013-02-20 01:20:00,
2013-02-19 19:22:00,2.1,-7.6,30.45,NNW,327,7.0,12.0,63,0.00,,CLR,0.00,VWS V14.01,2013-02-20 01:22:00,
2013-02-19 19:25:00,1.2,-7.8,30.47,NW,311,9.0,16.0,65,0.00,,CLR,0.00,VWS V14.01,2013-02-20 01:25:00,
2013-02-19 19:27:00,2.2,-7.5,30.46,NW,321,8.0,12.0,63,0.00,,CLR,0.00,VWS V14.01,2013-02-20 01:27:00,
2013-02-19 19:30:00,1.1,-7.9,30.48,NNW,343,11.0,17.0,65,0.00,,CLR,0.00,VWS V14.01,2013-02-20 01:30:00,
2013-02-19 19:32:00,2.1,-7.6,30.46,NW,317,11.0,14.0,63,0.00,,CLR,0.00,VWS V14.01,2013-02-20 01:32:00,
2013-02-19 19:35:00,1.2,-7.8,30.48,NNW,337,11.0,18.0,65,0.00,,CLR,0.00,VWS V14.01,2013-02-20 01:35:00,
2013-02-19 19:37:00,2.0,-7.7,30.46,NW,323,6.0,13.0,63,0.00,,CLR,0.00,VWS V14.01,2013-02-20 01:37:00,
2013-02-19 19:40:00,1.1,-7.9,30.48,NW,325,11.0,15.0,65,0.00,,CLR,0.00,VWS V14.01,2013-02-20 01:40:00,
2013-02-19 19:42:00,1.9,-7.8,30.46,NW,319,10.0,11.0,63,0.00,,CLR,0.00,VWS V14.01,2013-02-20 01:42:00,
2013-02-19 19:45:00,1.1,-7.9,30.49,NNW,339,9.0,15.0,65,0.00,,CLR,0.00,VWS V14.01,2013-02-20 01:45:00,
2013-02-19 19:47:00,1.7,-8.0,30.46,NW,316,9.0,12.0,63,0.00,,CLR,0.00,VWS V14.01,2013-02-20 01:47:00,
2013-02-19 19:50:00,1.2,-7.8,30.49,NNW,339,12.0,18.0,65,0.00,,CLR,0.00,VWS V14.01,2013-02-20 01:50:00,
2013-02-19 19:54:00,1.5,-7.8,30.47,NNW,327,5.0,7.0,64,0.00,,CLR,0.00,VWS V14.01,2013-02-20 01:54:00,
2013-02-19 19:55:00,1.3,-7.7,30.50,North,355,12.0,14.0,65,0.00,,CLR,0.00,VWS V14.01,2013-02-20 01:55:00,
2013-02-19 19:59:00,1.5,-7.8,30.47,NNW,330,9.0,12.0,64,0.00,,CLR,0.00,VWS V14.01,2013-02-20 01:59:00,
2013-02-19 20:00:00,1.3,-7.7,30.50,NNW,345,9.0,15.0,65,0.00,,CLR,0.00,VWS V14.01,2013-02-20 02:00:00,
2013-02-19 20:04:00,1.5,-7.8,30.47,NW,325,8.0,12.0,64,0.00,,CLR,0.00,VWS V14.01,2013-02-20 02:04:00,
2013-02-19 20:05:00,1.1,-7.9,30.50,NNW,340,9.0,13.0,65,0.00,,CLR,0.00,VWS V14.01,2013-02-20 02:05:00,
2013-02-19 20:10:00,1.5,-7.8,30.47,NNW,338,10.0,15.0,64,0.00,,CLR,0.00,VWS V14.01,2013-02-20 02:10:00,
2013-02-19 20:15:00,1.4,-7.9,30.47,NNW,338,9.0,12.0,64,0.00,,CLR,0.00,VWS V14.01,2013-02-20 02:15:00,
2013-02-19 20:20:00,1.3,-8.0,30.47,NW,321,7.0,12.0,64,0.00,,CLR,0.00,VWS V14.01,2013-02-20 02:20:00,
2013-02-19 20:25:00,1.2,-7.8,30.47,NW,325,11.0,12.0,65,0.00,,CLR,0.00,VWS V14.01,2013-02-20 02:25:00,
2013-02-19 20:30:00,1.2,-7.8,30.48,NW,317,12.0,14.0,65,0.00,,CLR,0.00,VWS V14.01,2013-02-20 02:30:00,
2013-02-19 20:35:00,1.1,-7.9,30.48,NNW,347,13.0,16.0,65,0.00,,CLR,0.00,VWS V14.01,2013-02-20 02:35:00,
2013-02-19 20:40:00,1.1,-7.9,30.48,NNW,337,11.0,14.0,65,0.00,,CLR,0.00,VWS V14.01,2013-02-20 02:40:00,
2013-02-19 20:45:00,1.1,-7.9,30.49,NW,326,11.0,15.0,65,0.00,,CLR,0.00,VWS V14.01,2013-02-20 02:45:00,
2013-02-19 20:50:00,1.1,-7.9,30.49,NNW,334,10.0,18.0,65,0.00,,CLR,0.00,VWS V14.01,2013-02-20 02:50:00,
2013-02-19 20:55:00,1.3,-7.7,30.49,North,349,9.0,14.0,65,0.00,,CLR,0.00,VWS V14.01,2013-02-20 02:55:00,
2013-02-19 21:00:00,1.3,-7.7,30.50,NW,323,13.0,15.0,65,0.00,,CLR,0.00,VWS V14.01,2013-02-20 03:00:00,
2013-02-19 21:05:00,1.2,-7.8,30.50,North,355,10.0,12.0,65,0.00,,CLR,0.00,VWS V14.01,2013-02-20 03:05:00,
2013-02-19 21:10:00,1.0,-8.0,30.49,NNW,341,11.0,15.0,65,0.00,,CLR,0.00,VWS V14.01,2013-02-20 03:10:00,
2013-02-19 21:15:00,0.8,-8.2,30.50,North,355,11.0,13.0,65,0.00,,CLR,0.00,VWS V14.01,2013-02-20 03:15:00,
2013-02-19 21:20:00,-2.1,-9.8,30.51,North,5,11.0,13.0,69,0.00,,CLR,0.00,VWS V14.01,2013-02-20 03:20:00,
2013-02-19 21:21:00,0.7,-8.0,30.50,NNW,337,9.0,13.0,66,0.00,,CLR,0.00,VWS V14.01,2013-02-20 03:21:00,
2013-02-19 21:25:00,-2.2,-9.9,30.51,North,355,9.0,13.0,69,0.00,,CLR,0.00,VWS V14.01,2013-02-20 03:25:00,
2013-02-19 21:26:00,0.4,-8.3,30.50,NNW,338,10.0,12.0,66,0.00,,CLR,0.00,VWS V14.01,2013-02-20 03:26:00,
2013-02-19 21:30:00,-2.2,-9.6,30.51,North,5,12.0,13.0,70,0.00,,CLR,0.00,VWS V14.01,2013-02-20 03:30:00,
2013-02-19 21:31:00,0.3,-8.4,30.50,NNW,333,12.0,14.0,66,0.00,,CLR,0.00,VWS V14.01,2013-02-20 03:31:00,
2013-02-19 21:35:00,-2.2,-9.6,30.51,North,5,11.0,13.0,70,0.00,,CLR,0.00,VWS V14.01,2013-02-20 03:35:00,
2013-02-19 21:36:00,0.3,-8.4,30.50,North,355,10.0,14.0,66,0.00,,CLR,0.00,VWS V14.01,2013-02-20 03:36:00,
2013-02-19 21:40:00,-2.2,-9.6,30.51,NNW,348,10.0,12.0,70,0.00,,CLR,0.00,VWS V14.01,2013-02-20 03:40:00,
2013-02-19 21:41:00,0.1,-8.3,30.50,North,360,9.0,14.0,67,0.00,,CLR,0.00,VWS V14.01,2013-02-20 03:41:00,
2013-02-19 21:45:00,-2.1,-9.5,30.52,NNW,340,11.0,13.0,70,0.00,,CLR,0.00,VWS V14.01,2013-02-20 03:45:00,
2013-02-19 21:46:00,-0.2,-8.5,30.51,NNW,336,10.0,13.0,67,0.00,,CLR,0.00,VWS V14.01,2013-02-20 03:46:00,
2013-02-19 21:50:00,-1.9,-9.3,30.52,NNW,333,5.0,12.0,70,0.00,,CLR,0.00,VWS V14.01,2013-02-20 03:50:00,
2013-02-19 21:51:00,-0.3,-8.6,30.51,NNW,347,11.0,11.0,67,0.00,,CLR,0.00,VWS V14.01,2013-02-20 03:51:00,
2013-02-19 21:55:00,-1.8,-9.2,30.53,NW,312,6.0,11.0,70,0.00,,CLR,0.00,VWS V14.01,2013-02-20 03:55:00,
2013-02-19 21:56:00,-0.5,-8.8,30.51,NNW,346,9.0,12.0,67,0.00,,CLR,0.00,VWS V14.01,2013-02-20 03:56:00,
2013-02-19 22:00:00,-1.6,-9.0,30.53,NNW,330,6.0,11.0,70,0.00,,CLR,0.00,VWS V14.01,2013-02-20 04:00:00,
2013-02-19 22:01:00,-0.8,-8.8,30.51,North,350,9.0,13.0,68,0.00,,CLR,0.00,VWS V14.01,2013-02-20 04:01:00,
2013-02-19 22:05:00,-1.6,-9.0,30.53,North,355,7.0,13.0,70,0.00,,CLR,0.00,VWS V14.01,2013-02-20 04:05:00,
2013-02-19 22:06:00,-1.1,-9.1,30.51,North,355,7.0,11.0,68,0.00,,CLR,0.00,VWS V14.01,2013-02-20 04:06:00,
2013-02-19 22:10:00,-1.8,-9.2,30.52,North,355,10.0,12.0,70,0.00,,CLR,0.00,VWS V14.01,2013-02-20 04:10:00,
2013-02-19 22:11:00,-1.4,-9.4,30.51,North,355,9.0,12.0,68,0.00,,CLR,0.00,VWS V14.01,2013-02-20 04:11:00,
2013-02-19 22:15:00,-2.1,-9.5,30.52,NNW,337,10.0,11.0,70,0.00,,CLR,0.00,VWS V14.01,2013-02-20 04:15:00,
2013-02-19 22:16:00,-1.8,-9.8,30.51,North,355,8.0,11.0,68,0.00,,CLR,0.00,VWS V14.01,2013-02-20 04:16:00,
2013-02-19 22:20:00,-2.6,-9.9,30.52,North,349,6.0,10.0,70,0.00,,CLR,0.00,VWS V14.01,2013-02-20 04:20:00,
2013-02-19 22:21:00,-2.1,-9.8,30.51,North,360,11.0,13.0,69,0.00,,CLR,0.00,VWS V14.01,2013-02-20 04:21:00,
2013-02-19 22:25:00,-2.9,-9.9,30.52,North,5,7.0,12.0,71,0.00,,CLR,0.00,VWS V14.01,2013-02-20 04:25:00,
2013-02-19 22:26:00,-2.1,-9.5,30.51,North,355,10.0,13.0,70,0.00,,CLR,0.00,VWS V14.01,2013-02-20 04:26:00,
2013-02-19 22:30:00,-2.9,-9.7,30.53,North,349,7.0,10.0,72,0.00,,CLR,0.00,VWS V14.01,2013-02-20 04:30:00,
2013-02-19 22:31:00,-2.2,-9.6,30.51,North,5,11.0,13.0,70,0.00,,CLR,0.00,VWS V14.01,2013-02-20 04:31:00,
2013-02-19 22:35:00,-2.8,-9.6,30.53,North,349,5.0,10.0,72,0.00,,CLR,0.00,VWS V14.01,2013-02-20 04:35:00,
2013-02-19 22:36:00,-2.2,-9.6,30.51,NNE,12,10.0,12.0,70,0.00,,CLR,0.00,VWS V14.01,2013-02-20 04:36:00,
2013-02-19 22:40:00,-2.5,-9.3,30.53,NNW,345,10.0,10.0,72,0.00,,CLR,0.00,VWS V14.01,2013-02-20 04:40:00,
2013-02-19 22:42:00,-2.2,-9.6,30.51,North,355,9.0,12.0,70,0.00,,CLR,0.00,VWS V14.01,2013-02-20 04:42:00,
2013-02-19 22:45:00,-2.5,-9.6,30.53,NNW,341,4.0,10.0,71,0.00,,CLR,0.00,VWS V14.01,2013-02-20 04:45:00,
2013-02-19 22:47:00,-2.1,-9.5,30.51,North,355,12.0,12.0,70,0.00,,CLR,0.00,VWS V14.01,2013-02-20 04:47:00,
2013-02-19 22:50:00,-2.7,-9.8,30.54,NNW,341,7.0,9.0,71,0.00,,CLR,0.00,VWS V14.01,2013-02-20 04:50:00,
2013-02-19 22:52:00,-1.9,-9.0,30.52,NNW,333,5.0,12.0,71,0.00,,CLR,0.00,VWS V14.01,2013-02-20 04:52:00,
2013-02-19 22:55:00,-2.6,-9.4,30.54,NNW,346,4.0,9.0,72,0.00,,CLR,0.00,VWS V14.01,2013-02-20 04:55:00,
2013-02-19 22:57:00,-1.8,-8.9,30.53,NNW,327,5.0,11.0,71,0.00,,CLR,0.00,VWS V14.01,2013-02-20 04:57:00,
2013-02-19 23:00:00,-1.7,-8.8,30.53,NW,321,4.0,11.0,71,0.00,,CLR,0.00,VWS V14.01,2013-02-20 05:00:00,
2013-02-19 23:05:00,-1.6,-9.0,30.53,NNW,328,7.0,10.0,70,0.00,,CLR,0.00,VWS V14.01,2013-02-20 05:05:00,
2013-02-19 23:10:00,-1.7,-9.1,30.52,NNW,339,9.0,12.0,70,0.00,,CLR,0.00,VWS V14.01,2013-02-20 05:10:00,
2013-02-19 23:15:00,-2.7,-9.5,30.55,NW,319,9.0,10.0,72,0.00,,CLR,0.00,VWS V14.01,2013-02-20 05:15:00,
2013-02-19 23:16:00,-1.9,-9.3,30.52,North,355,7.0,11.0,70,0.00,,CLR,0.00,VWS V14.01,2013-02-20 05:16:00,
2013-02-19 23:20:00,-2.8,-9.6,30.55,NW,318,6.0,11.0,72,0.00,,CLR,0.00,VWS V14.01,2013-02-20 05:20:00,
2013-02-19 23:21:00,-2.4,-9.8,30.52,North,355,6.0,10.0,70,0.00,,CLR,0.00,VWS V14.01,2013-02-20 05:21:00,
2013-02-19 23:25:00,-2.9,-9.7,30.55,NW,325,7.0,11.0,72,0.00,,CLR,0.00,VWS V14.01,2013-02-20 05:25:00,
2013-02-19 23:26:00,-2.8,-10.1,30.52,North,349,7.0,12.0,70,0.00,,CLR,0.00,VWS V14.01,2013-02-20 05:26:00,
2013-02-19 23:30:00,-3.0,-9.8,30.55,NW,307,9.0,12.0,72,0.00,,CLR,0.00,VWS V14.01,2013-02-20 05:30:00,
2013-02-19 23:31:00,-2.9,-9.9,30.53,NNW,334,7.0,10.0,71,0.00,,CLR,0.00,VWS V14.01,2013-02-20 05:31:00,
2013-02-19 23:35:00,-2.9,-9.7,30.55,NNW,339,11.0,12.0,72,0.00,,CLR,0.00,VWS V14.01,2013-02-20 05:35:00,
2013-02-19 23:36:00,-2.8,-9.6,30.53,NNW,345,7.0,7.0,72,0.00,,CLR,0.00,VWS V14.01,2013-02-20 05:36:00,
2013-02-19 23:40:00,-2.8,-9.3,30.55,NW,326,11.0,14.0,73,0.00,,CLR,0.00,VWS V14.01,2013-02-20 05:40:00,
2013-02-19 23:41:00,-2.6,-9.4,30.53,North,350,4.0,10.0,72,0.00,,CLR,0.00,VWS V14.01,2013-02-20 05:41:00,
2013-02-19 23:45:00,-2.7,-9.5,30.55,NW,326,10.0,13.0,72,0.00,,CLR,0.00,VWS V14.01,2013-02-20 05:45:00,
2013-02-19 23:46:00,-2.4,-9.2,30.53,NNW,337,7.0,10.0,72,0.00,,CLR,0.00,VWS V14.01,2013-02-20 05:46:00,
2013-02-19 23:50:00,-2.7,-9.5,30.55,NW,325,7.0,12.0,72,0.00,,CLR,0.00,VWS V14.01,2013-02-20 05:50:00,
2013-02-19 23:51:00,-2.6,-9.7,30.53,NNW,338,5.0,7.0,71,0.00,,CLR,0.00,VWS V14.01,2013-02-20 05:51:00,
2013-02-19 23:55:00,-2.8,-9.3,30.55,NNW,331,9.0,14.0,73,0.00,,CLR,0.00,VWS V14.01,2013-02-20 05:55:00,
2013-02-19 23:56:00,-2.7,-9.5,30.54,NNW,333,7.0,9.0,72,0.00,,CLR,0.00,VWS V14.01,2013-02-20 05:56:00,